Fuengirola, Espanja

31. lokakuuta 2014 klo 11:28 (CET) (GMT +0100)
Las Lagunas | Change Station
CLOSE
Current Station
Omat sääasemat
Location: Fuengirola, ANDALUCíA
Korkeus: 125 ft
Lähimmät sääasemat

Kork 125 ft 36.54 °N, 4.64 °W | Updated 13 minutes ago

Partly Cloudy
Puolipilvistä
72.9 °F
Tuntuu kuin 76 °F
N
4.9
Tuuli Suunnaltaan vaihteleva Tuuli ilmansuunnasta Idän ja kaakon välinen
Gusts 6.3 mph

Tänään
Korkea -- | Matala -- °F
--% Sateen mahd.
Eilen
Korkea -- | Matala -- °F
Precip. -- tuumaa
7:40 AM 6:23 PM
Ensimmäinen neljännes, 54% visible
Ilmanpaine 30.21 tuumaa
Näkyvyys 6.2 mailia
Pilviä Harvoja pilviä 2000 ft
Lämpötilaindeksi 76 °F
Kastepiste 61 °F
Ilmankosteus 66%
Sademäärä 0.00 tuumaa
Lumensyvyys Ei saatavilla
UV 3 / 12
Pollen Ei saatavilla
Ilmanlaatu Ei saatavilla
Flu Activity Ei saatavilla
METAR LEMG 311000Z 00000KT 9999 FEW020 21/14 Q1023 NOSIG

More Conditions Fewer Conditions

Ilmanpaine 30.21 tuumaa
Näkyvyys 6.2 mailia
Pilviä Harvoja pilviä 2000 ft
Lämpötilaindeksi 76 °F
Kastepiste 61 °F
Ilmankosteus 66%
Sademäärä 0.00 tuumaa
Lumensyvyys Ei saatavilla
UV 3 / 12
Pollen Ei saatavilla
Ilmanlaatu Ei saatavilla
Flu Activity Ei saatavilla
METAR LEMG 311000Z 00000KT 9999 FEW020 21/14 Q1023 NOSIG

More Conditions Fewer Conditions

10-Day Weather Forecast

Almanac

Tähtitiede

Oct. 31, 2014 Nousuaika Laskuaika
Valoisa aika
Porvarillinen hämärä
Nauttinen hämärä
Astronominen hämärä
Kuu
Näkyvän valon pituus
Päivän pituus
Tomorrow will be .
, % of the Moon is Illuminated

Tämän päivän ennätykset

Country Highs Country Lows

Community

WunderPhotos

Upload Photos

1,766,580 photos uploaded!

WunderBlogs® & News

Nearby

Ilmanlaatu

  Ilmanlaatu AQ Index Pollutant
Not available.

Lumensyvyys

Station Depth Korkeus

Maanjäristysaktiivisuus

Paikkakunta Distance Mag. Time & Date
Minimum magnitude displayed is 2.5.

Coastal Water Temperatures

Paikka Lämpötila

Lähimmät sääasemat